createdAt,value
2017-07-02T00:00:07.094Z,96.27
2017-07-02T00:01:07.076Z,96.51
2017-07-02T00:02:07.051Z,96.51
2017-07-02T00:03:07.030Z,97.18
2017-07-02T00:04:07.009Z,97.09
2017-07-02T00:05:06.986Z,97.14
2017-07-02T00:06:06.965Z,97.18
2017-07-02T00:07:06.945Z,97.09
2017-07-02T00:08:06.924Z,96.99
2017-07-02T00:09:06.953Z,96.94
2017-07-02T00:10:06.885Z,96.99
2017-07-02T00:11:06.860Z,96.51
2017-07-02T00:12:06.841Z,96.75
2017-07-02T00:13:06.820Z,97.04
2017-07-02T00:14:06.849Z,96.7
2017-07-02T00:15:06.777Z,96.94
2017-07-02T00:16:06.755Z,97.18
2017-07-02T00:17:06.736Z,96.89
2017-07-02T00:18:06.714Z,96.89
2017-07-02T00:19:06.690Z,97.18
2017-07-02T00:20:06.726Z,96.8
2017-07-02T00:21:06.651Z,97.09
2017-07-02T00:22:06.630Z,97.38
2017-07-02T00:23:06.658Z,97.18
2017-07-02T00:24:06.589Z,97.28
2017-07-02T00:25:06.566Z,96.89
2017-07-02T00:26:06.549Z,97.18
2017-07-02T00:27:06.573Z,97.09
2017-07-02T00:28:06.506Z,97.47
2017-07-02T00:29:06.489Z,97.38
2017-07-02T00:30:06.459Z,97.56
2017-07-02T00:31:06.442Z,97.56
2017-07-02T00:32:06.418Z,97.75
2017-07-02T00:33:06.399Z,97.56
2017-07-02T00:34:06.378Z,98.14
2017-07-02T00:35:06.361Z,97.95
2017-07-02T00:36:06.336Z,98.14
2017-07-02T00:37:06.370Z,97.95
2017-07-02T00:38:06.300Z,97.95
2017-07-02T00:39:06.274Z,97.75
2017-07-02T00:40:06.251Z,97.95
2017-07-02T00:41:06.232Z,97.95
2017-07-02T00:42:06.211Z,97.85
2017-07-02T00:43:06.189Z,97.95
2017-07-02T00:44:05.864Z,97.85
2017-07-02T00:45:05.847Z,97.52
2017-07-02T00:46:06.126Z,97.61
2017-07-02T00:47:06.106Z,97.52
2017-07-02T00:48:06.084Z,97.52
2017-07-02T00:49:06.066Z,97.52
2017-07-02T00:50:06.042Z,97.9
2017-07-02T00:51:06.020Z,98.09
2017-07-02T00:52:06.001Z,97.8
2017-07-02T00:53:05.981Z,98
2017-07-02T00:54:05.957Z,97.9
2017-07-02T00:55:05.940Z,97.9
2017-07-02T00:56:05.919Z,97.8
2017-07-02T00:57:05.898Z,97.71
2017-07-02T00:58:05.877Z,98.28
2017-07-02T00:59:05.858Z,98
2017-07-02T01:00:05.839Z,98
2017-07-02T01:01:05.819Z,97.8
2017-07-02T01:02:05.790Z,98.28
2017-07-02T01:03:05.771Z,98.28
2017-07-02T01:04:05.752Z,98.28
2017-07-02T01:05:05.979Z,98.28
2017-07-02T01:06:05.703Z,98.19
2017-07-02T01:07:05.685Z,98.09
2017-07-02T01:08:05.663Z,98.19
2017-07-02T01:09:05.639Z,98
2017-07-02T01:10:05.624Z,98.09
2017-07-02T01:11:05.598Z,98.09
2017-07-02T01:12:05.582Z,98
2017-07-02T01:13:05.564Z,98.95
2017-07-02T01:14:05.542Z,98.95
2017-07-02T01:15:05.514Z,98.61
2017-07-02T01:16:05.496Z,98.14
2017-07-02T01:17:05.476Z,98.66
2017-07-02T01:18:05.454Z,98.57
2017-07-02T01:19:05.436Z,98.9
2017-07-02T01:20:05.410Z,98.57
2017-07-02T01:21:05.392Z,98.81
2017-07-02T01:22:05.368Z,98.95
2017-07-02T01:23:05.347Z,98.66
2017-07-02T01:24:05.323Z,98.43
2017-07-02T01:25:05.308Z,98.47
2017-07-02T01:26:05.285Z,98.76
2017-07-02T01:27:05.262Z,98.57
2017-07-02T01:28:05.243Z,98.76
2017-07-02T01:29:05.221Z,98.47
2017-07-02T01:30:05.200Z,98.76
2017-07-02T01:31:05.176Z,98.66
2017-07-02T01:32:05.157Z,98.76
2017-07-02T01:33:05.145Z,98.61
2017-07-02T01:34:05.116Z,98.43
2017-07-02T01:35:05.090Z,98.66
2017-07-02T01:36:05.073Z,98.86
2017-07-02T01:37:05.053Z,98.76
2017-07-02T01:38:05.031Z,99
2017-07-02T01:39:05.012Z,99.1
2017-07-02T01:40:04.988Z,98.66
2017-07-02T01:41:04.970Z,99
2017-07-02T01:42:04.945Z,99
2017-07-02T01:43:04.924Z,99
2017-07-02T01:44:04.957Z,98.81
2017-07-02T01:45:04.882Z,99.19
2017-07-02T01:46:04.855Z,99
2017-07-02T01:47:04.843Z,99
2017-07-02T01:48:04.818Z,99.1
2017-07-02T01:49:04.798Z,99
2017-07-02T01:50:04.776Z,99
2017-07-02T01:51:04.759Z,99.1
2017-07-02T01:52:04.433Z,99.19
2017-07-02T01:53:04.715Z,99.1
2017-07-02T01:54:04.395Z,98.9
2017-07-02T01:55:04.672Z,99.1
2017-07-02T01:56:04.652Z,99.1
2017-07-02T01:57:04.626Z,99.1
2017-07-02T01:58:04.606Z,98.61
2017-07-02T01:59:04.586Z,98.81
2017-07-02T02:00:04.258Z,99.86
2017-07-02T02:01:04.548Z,99.76
2017-07-02T02:02:04.523Z,99.76
2017-07-02T02:03:04.502Z,99.76
2017-07-02T02:04:04.478Z,99.86
2017-07-02T02:05:04.459Z,99.86
2017-07-02T02:06:04.437Z,99.67
2017-07-02T02:07:04.413Z,99.29
2017-07-02T02:08:04.425Z,99.96
2017-07-02T02:09:04.377Z,99.99
2017-07-02T02:10:04.349Z,99.76
2017-07-02T02:11:04.329Z,99.71
2017-07-02T02:12:04.315Z,99.96
2017-07-02T02:13:04.287Z,99.86
2017-07-02T02:14:04.270Z,99.76
2017-07-02T02:15:04.246Z,99.96
2017-07-02T02:16:04.221Z,99.96
2017-07-02T02:17:04.208Z,99.99
2017-07-02T02:18:04.180Z,99.86
2017-07-02T02:19:04.160Z,99.99
2017-07-02T02:20:04.139Z,99.99
2017-07-02T02:21:04.123Z,99.96
2017-07-02T02:22:04.097Z,99.99
2017-07-02T02:23:04.076Z,99.99
2017-07-02T02:24:04.053Z,99.99
2017-07-02T02:25:04.033Z,99.99
2017-07-02T02:26:04.010Z,99.99
2017-07-02T02:27:03.994Z,99.99
2017-07-02T02:28:03.972Z,99.99
2017-07-02T02:29:03.949Z,99.99
2017-07-02T02:30:03.925Z,99.99
2017-07-02T02:31:03.600Z,99.99
2017-07-02T02:32:03.883Z,99.99
2017-07-02T02:33:03.862Z,99.99
2017-07-02T02:34:04.094Z,99.99
2017-07-02T02:35:03.820Z,99.99
2017-07-02T02:36:03.802Z,99.99
2017-07-02T02:37:03.771Z,99.99
2017-07-02T02:38:03.753Z,99.99
2017-07-02T02:39:03.736Z,99.99
2017-07-02T02:40:03.709Z,99.99
2017-07-02T02:41:03.690Z,99.99
2017-07-02T02:42:03.372Z,99.99
2017-07-02T02:43:03.650Z,99.99
2017-07-02T02:44:03.626Z,99.99
2017-07-02T02:45:03.605Z,99.99
2017-07-02T02:46:03.585Z,99.99
2017-07-02T02:47:03.564Z,99.99
2017-07-02T02:48:03.542Z,99.99
2017-07-02T02:49:03.522Z,99.99
2017-07-02T02:50:03.501Z,99.99
2017-07-02T02:51:03.526Z,99.99
2017-07-02T02:52:03.457Z,99.99
2017-07-02T02:53:03.437Z,99.99
2017-07-02T02:54:03.416Z,99.99
2017-07-02T02:55:03.496Z,99.99
2017-07-02T02:56:03.376Z,99.99
2017-07-02T02:57:03.360Z,99.99
2017-07-02T02:58:03.034Z,99.99
2017-07-02T02:59:03.310Z,99.99
2017-07-02T03:00:03.293Z,99.99
2017-07-02T03:01:03.276Z,99.99
2017-07-02T03:02:03.246Z,99.99
2017-07-02T03:03:03.222Z,99.99
2017-07-02T03:04:03.208Z,99.99
2017-07-02T03:05:03.188Z,99.99
2017-07-02T03:06:03.164Z,99.99
2017-07-02T03:07:03.142Z,99.99
2017-07-02T03:08:03.117Z,99.99
2017-07-02T03:09:03.097Z,99.99
2017-07-02T03:10:03.075Z,99.99
2017-07-02T03:11:03.052Z,99.99
2017-07-02T03:12:03.042Z,99.99
2017-07-02T03:13:03.013Z,99.99
2017-07-02T03:14:02.992Z,99.99
2017-07-02T03:15:02.970Z,99.99
2017-07-02T03:16:02.951Z,99.99
2017-07-02T03:17:02.928Z,99.99
2017-07-02T03:18:02.909Z,99.96
2017-07-02T03:19:02.893Z,99.99
2017-07-02T03:20:02.915Z,99.99
2017-07-02T03:21:02.849Z,99.99
2017-07-02T03:22:02.824Z,99.99
2017-07-02T03:23:02.799Z,99.99
2017-07-02T03:24:02.782Z,99.96
2017-07-02T03:25:02.761Z,99.99
2017-07-02T03:26:02.737Z,99.99
2017-07-02T03:27:02.716Z,99.99
2017-07-02T03:28:02.694Z,99.86
2017-07-02T03:29:02.679Z,99.76
2017-07-02T03:30:02.659Z,99.76
2017-07-02T03:31:02.633Z,99.96
2017-07-02T03:32:02.609Z,99.86
2017-07-02T03:33:02.638Z,99.76
2017-07-02T03:34:02.570Z,99.99
2017-07-02T03:35:02.553Z,99.96
2017-07-02T03:36:02.525Z,99.76
2017-07-02T03:37:02.506Z,99.67
2017-07-02T03:38:02.484Z,99.48
2017-07-02T03:39:02.461Z,99.86
2017-07-02T03:40:02.486Z,99.86
2017-07-02T03:41:02.418Z,99.57
2017-07-02T03:42:02.397Z,99.38
2017-07-02T03:43:02.388Z,98.81
2017-07-02T03:44:02.359Z,99.76
2017-07-02T03:45:02.336Z,99.29
2017-07-02T03:46:02.617Z,98.81
2017-07-02T03:47:02.296Z,99
2017-07-02T03:48:02.274Z,99.38
2017-07-02T03:49:02.251Z,98.61
2017-07-02T03:50:02.228Z,99.1
2017-07-02T03:51:02.207Z,99.19
2017-07-02T03:52:02.237Z,98.81
2017-07-02T03:53:02.166Z,98.61
2017-07-02T03:54:02.143Z,98.9
2017-07-02T03:55:02.122Z,98.71
2017-07-02T03:56:02.119Z,98.81
2017-07-02T03:57:02.080Z,98.52
2017-07-02T03:58:02.061Z,98.61
2017-07-02T03:59:02.039Z,98.71
2017-07-02T04:00:02.018Z,98.61
2017-07-02T04:01:01.994Z,98.81
2017-07-02T04:02:01.976Z,98.57
2017-07-02T04:03:01.956Z,98.71
2017-07-02T04:04:01.930Z,98.9
2017-07-02T04:05:01.928Z,98.95
2017-07-02T04:06:01.891Z,98.81
2017-07-02T04:07:01.871Z,98.04
2017-07-02T04:08:01.848Z,97.95
2017-07-02T04:09:01.826Z,98
2017-07-02T04:10:01.805Z,98.28
2017-07-02T04:11:01.782Z,98.09
2017-07-02T04:12:01.765Z,98.04
2017-07-02T04:13:01.788Z,98.47
2017-07-02T04:14:01.418Z,98.09
2017-07-02T04:15:01.699Z,98
2017-07-02T04:16:01.682Z,98.09
2017-07-02T04:17:01.659Z,98
2017-07-02T04:18:01.636Z,97.71
2017-07-02T04:19:01.615Z,98
2017-07-02T04:20:01.604Z,98.09
2017-07-02T04:21:01.276Z,97.71
2017-07-02T04:22:01.557Z,98
2017-07-02T04:23:01.530Z,97.23
2017-07-02T04:24:01.513Z,97.61
2017-07-02T04:25:01.495Z,98.09
2017-07-02T04:26:01.472Z,97.52
2017-07-02T04:27:01.451Z,97.33
2017-07-02T04:28:01.430Z,97.42
2017-07-02T04:29:01.406Z,97.61
2017-07-02T04:30:01.393Z,97.42
2017-07-02T04:31:01.364Z,97.71
2017-07-02T04:32:01.346Z,97.52
2017-07-02T04:33:01.323Z,97.9
2017-07-02T04:34:01.306Z,97.9
2017-07-02T04:35:01.282Z,97.61
2017-07-02T04:36:01.265Z,97.04
2017-07-02T04:37:01.241Z,96.84
2017-07-02T04:38:01.218Z,97.04
2017-07-02T04:39:01.198Z,97.13
2017-07-02T04:40:01.174Z,96.75
2017-07-02T04:41:01.155Z,97.33
2017-07-02T04:42:01.181Z,96.66
2017-07-02T04:43:00.809Z,96.84
2017-07-02T04:44:01.090Z,96.84
2017-07-02T04:45:01.077Z,97.23
2017-07-02T04:46:01.051Z,96.84
2017-07-02T04:47:01.029Z,96.94
2017-07-02T04:48:01.015Z,97.04
2017-07-02T04:49:00.988Z,96.94
2017-07-02T04:50:00.969Z,96.56
2017-07-02T04:51:00.955Z,96.94
2017-07-02T04:52:00.925Z,96.84
2017-07-02T04:53:00.902Z,97.13
2017-07-02T04:54:00.880Z,97.23
2017-07-02T04:55:00.861Z,96.66
2017-07-02T04:56:00.839Z,96.42
2017-07-02T04:57:00.821Z,96.37
2017-07-02T04:58:00.800Z,96.51
2017-07-02T04:59:00.830Z,96.51
2017-07-02T05:00:00.758Z,96.13
2017-07-02T05:01:00.734Z,96.7
2017-07-02T05:02:00.720Z,96.03
2017-07-02T05:03:00.697Z,96.22
2017-07-02T05:04:00.674Z,96.13
2017-07-02T05:05:00.656Z,96.32
2017-07-02T05:06:00.643Z,96.22
2017-07-02T05:07:00.610Z,96.32
2017-07-02T05:08:00.594Z,95.84
2017-07-02T05:09:00.622Z,95.75
2017-07-02T05:10:00.555Z,95.75
2017-07-02T05:11:00.536Z,95.36
2017-07-02T05:12:00.509Z,95.36
2017-07-02T05:13:00.486Z,95.46
2017-07-02T05:14:00.469Z,95.56
2017-07-02T05:15:00.446Z,95.07
2017-07-02T05:16:00.423Z,95.17
2017-07-02T05:17:00.404Z,95.27
2017-07-02T05:18:00.443Z,95.65
2017-07-02T05:19:00.370Z,94.79
2017-07-02T05:20:00.037Z,94.79
2017-07-02T05:21:00.323Z,94.98
2017-07-02T05:22:00.303Z,94.6
2017-07-02T05:23:00.283Z,94.79
2017-07-02T05:24:00.259Z,94.4
2017-07-02T05:25:00.234Z,94.4
2017-07-02T05:26:00.218Z,94.6
2017-07-02T05:27:00.203Z,94.4
2017-07-02T05:28:00.179Z,94.31
2017-07-02T05:29:00.165Z,94.21
2017-07-02T05:30:00.136Z,94.69
2017-07-02T05:31:00.113Z,94.12
2017-07-02T05:32:00.094Z,94.21
2017-07-02T05:33:00.077Z,94.31
2017-07-02T05:34:00.056Z,93.83
2017-07-02T05:35:00.036Z,94.02
2017-07-02T05:36:00.015Z,93.83
2017-07-02T05:36:59.992Z,94.02
2017-07-02T05:37:59.977Z,94.17
2017-07-02T05:38:59.960Z,94.02
2017-07-02T05:39:59.934Z,94.17
2017-07-02T05:40:59.912Z,93.74
2017-07-02T05:41:59.890Z,94.26
2017-07-02T05:42:59.563Z,93.4
2017-07-02T05:43:59.853Z,93.59
2017-07-02T05:44:59.828Z,93.49
2017-07-02T05:45:59.807Z,93.4
2017-07-02T05:46:59.794Z,93.4
2017-07-02T05:47:59.820Z,93.49
2017-07-02T05:48:59.755Z,93.44
2017-07-02T05:49:59.777Z,93.44
2017-07-02T05:50:59.703Z,92.97
2017-07-02T05:51:59.935Z,92.68
2017-07-02T05:52:59.667Z,91.77
2017-07-02T05:53:59.645Z,91.48
2017-07-02T05:54:59.627Z,91.57
2017-07-02T05:55:59.605Z,91.19
2017-07-02T05:56:59.587Z,90.95
2017-07-02T05:57:59.573Z,90.75
2017-07-02T05:58:59.547Z,89.79
2017-07-02T05:59:59.527Z,89.99
2017-07-02T06:00:59.512Z,89.75
2017-07-02T06:01:59.489Z,89.36
2017-07-02T06:02:59.470Z,89.07
2017-07-02T06:03:59.449Z,88.45
2017-07-02T06:04:59.435Z,88.35
2017-07-02T06:05:59.420Z,87.1
2017-07-02T06:06:59.395Z,86.72
2017-07-02T06:07:59.376Z,86.33
2017-07-02T06:08:59.358Z,86.57
2017-07-02T06:09:59.342Z,86.18
2017-07-02T06:10:59.321Z,85.66
2017-07-02T06:11:59.322Z,85.66
2017-07-02T06:12:59.329Z,84.41
2017-07-02T06:13:59.265Z,84.7
2017-07-02T06:14:59.244Z,84.99
2017-07-02T06:15:59.232Z,84.31
2017-07-02T06:16:59.458Z,84.6
2017-07-02T06:17:59.190Z,84.7
2017-07-02T06:18:59.171Z,84.47
2017-07-02T06:19:59.150Z,84.31
2017-07-02T06:20:59.134Z,84.27
2017-07-02T06:21:59.118Z,84.75
2017-07-02T06:22:59.095Z,84.47
2017-07-02T06:23:59.075Z,84.85
2017-07-02T06:24:59.061Z,84.66
2017-07-02T06:25:59.033Z,84.95
2017-07-02T06:26:59.017Z,84.85
2017-07-02T06:27:58.696Z,84.85
2017-07-02T06:28:58.980Z,85.33
2017-07-02T06:29:58.962Z,85
2017-07-02T06:30:58.944Z,85.19
2017-07-02T06:31:58.927Z,84.75
2017-07-02T06:32:58.909Z,85.48
2017-07-02T06:33:58.930Z,85.1
2017-07-02T06:34:58.862Z,84.91
2017-07-02T06:35:58.844Z,85.38
2017-07-02T06:36:58.829Z,85.58
2017-07-02T06:37:58.804Z,85.48
2017-07-02T06:38:58.791Z,85.58
2017-07-02T06:39:58.765Z,85.77
2017-07-02T06:40:58.750Z,85.58
2017-07-02T06:41:58.731Z,84.61
2017-07-02T06:42:58.715Z,84.91
2017-07-02T06:43:58.692Z,84.91
2017-07-02T06:44:58.674Z,84.81
2017-07-02T06:45:58.648Z,85.33
2017-07-02T06:46:58.334Z,84.47
2017-07-02T06:47:58.605Z,84.56
2017-07-02T06:48:58.594Z,84.27
2017-07-02T06:49:58.575Z,84.47
2017-07-02T06:50:58.564Z,84.47
2017-07-02T06:51:58.533Z,84.27
2017-07-02T06:52:58.517Z,84.27
2017-07-02T06:53:58.496Z,83.98
2017-07-02T06:54:58.473Z,83.51
2017-07-02T06:55:58.462Z,83.7
2017-07-02T06:56:58.438Z,83.7
2017-07-02T06:57:58.419Z,83.31
2017-07-02T06:58:58.400Z,84.27
2017-07-02T06:59:58.386Z,84.18
2017-07-02T07:00:58.060Z,84.08
2017-07-02T07:01:58.341Z,84.08
2017-07-02T07:02:58.371Z,84.18
2017-07-02T07:03:58.308Z,84.08
2017-07-02T07:04:58.292Z,83.7
2017-07-02T07:05:58.270Z,84.14
2017-07-02T07:06:58.260Z,84.08
2017-07-02T07:07:58.230Z,84.37
2017-07-02T07:08:58.209Z,84.37
2017-07-02T07:09:58.188Z,84.61
2017-07-02T07:10:58.169Z,84.52
2017-07-02T07:11:58.155Z,84.47
2017-07-02T07:12:57.833Z,84.27
2017-07-02T07:13:58.110Z,84.71
2017-07-02T07:14:58.091Z,84.81
2017-07-02T07:15:58.071Z,84.81
2017-07-02T07:16:58.049Z,85
2017-07-02T07:17:57.728Z,85
2017-07-02T07:18:58.014Z,84.81
2017-07-02T07:19:57.998Z,84.95
2017-07-02T07:20:58.015Z,84.85
2017-07-02T07:21:57.951Z,85.1
2017-07-02T07:22:57.935Z,84.95
2017-07-02T07:23:57.918Z,85.1
2017-07-02T07:24:57.892Z,84.71
2017-07-02T07:25:57.871Z,84.91
2017-07-02T07:26:57.856Z,85.67
2017-07-02T07:27:57.843Z,85.58
2017-07-02T07:28:57.824Z,85.58
2017-07-02T07:29:57.849Z,86.05
2017-07-02T07:30:57.779Z,85.67
2017-07-02T07:31:57.756Z,86.63
2017-07-02T07:32:57.757Z,86.44
2017-07-02T07:33:57.724Z,86.05
2017-07-02T07:34:57.715Z,86.25
2017-07-02T07:35:57.679Z,86.44
2017-07-02T07:36:57.659Z,86.34
2017-07-02T07:37:57.640Z,86.15
2017-07-02T07:38:57.619Z,86.63
2017-07-02T07:39:57.297Z,86.68
2017-07-02T07:40:57.581Z,86.58
2017-07-02T07:41:57.561Z,86.68
2017-07-02T07:42:57.539Z,86.38
2017-07-02T07:43:57.521Z,86.48
2017-07-02T07:44:57.506Z,86.48
2017-07-02T07:45:57.483Z,86.48
2017-07-02T07:46:57.464Z,86.48
2017-07-02T07:47:57.148Z,86.29
2017-07-02T07:48:57.426Z,86.1
2017-07-02T07:49:57.404Z,86.25
2017-07-02T07:50:57.088Z,86.48
2017-07-02T07:51:57.361Z,86.44
2017-07-02T07:52:57.343Z,86.34
2017-07-02T07:53:57.328Z,86.63
2017-07-02T07:54:57.302Z,86.44
2017-07-02T07:55:57.284Z,86.92
2017-07-02T07:56:57.274Z,87.01
2017-07-02T07:57:57.292Z,87.21
2017-07-02T07:58:57.224Z,87.49
2017-07-02T07:59:57.209Z,87.3
2017-07-02T08:00:57.251Z,87.21
2017-07-02T08:01:57.174Z,87.49
2017-07-02T08:02:57.158Z,87.68
2017-07-02T08:03:57.123Z,87.88
2017-07-02T08:04:57.106Z,87.88
2017-07-02T08:05:57.091Z,87.88
2017-07-02T08:06:57.066Z,88.07
2017-07-02T08:07:57.051Z,88.12
2017-07-02T08:08:57.025Z,88.79
2017-07-02T08:09:57.008Z,88.79
2017-07-02T08:10:56.987Z,89.03
2017-07-02T08:11:56.969Z,89.41
2017-07-02T08:12:56.947Z,89.27
2017-07-02T08:13:56.925Z,89.47
2017-07-02T08:14:56.909Z,90.37
2017-07-02T08:15:56.883Z,89.89
2017-07-02T08:16:56.877Z,89.79
2017-07-02T08:17:56.850Z,90.18
2017-07-02T08:18:56.828Z,89.89
2017-07-02T08:19:56.858Z,90.18
2017-07-02T08:20:56.793Z,90.47
2017-07-02T08:21:56.778Z,90.47
2017-07-02T08:22:56.748Z,89.99
2017-07-02T08:23:56.727Z,90.47
2017-07-02T08:24:56.707Z,90.75
2017-07-02T08:25:56.691Z,90.75
2017-07-02T08:26:56.664Z,90.85
2017-07-02T08:27:56.644Z,91.24
2017-07-02T08:28:56.621Z,90.85
2017-07-02T08:29:56.653Z,90.85
2017-07-02T08:30:56.632Z,89.89
2017-07-02T08:31:56.619Z,90.56
2017-07-02T08:32:56.543Z,90.37
2017-07-02T08:33:56.524Z,90.28
2017-07-02T08:34:56.504Z,90.56
2017-07-02T08:35:56.486Z,90.75
2017-07-02T08:36:56.462Z,90.47
2017-07-02T08:37:56.447Z,90.18
2017-07-02T08:38:56.421Z,90.08
2017-07-02T08:39:56.415Z,90.47
2017-07-02T08:40:56.388Z,90.66
2017-07-02T08:41:56.365Z,90.85
2017-07-02T08:42:56.345Z,91.24
2017-07-02T08:43:56.330Z,91.42
2017-07-02T08:44:56.307Z,91.42
2017-07-02T08:45:56.287Z,91.33
2017-07-02T08:46:56.265Z,91.24
2017-07-02T08:47:55.945Z,92.19
2017-07-02T08:48:56.223Z,91.81
2017-07-02T08:49:56.212Z,92.19
2017-07-02T08:50:56.185Z,91.77
2017-07-02T08:51:56.163Z,92.39
2017-07-02T08:52:56.144Z,91.91
2017-07-02T08:53:55.871Z,92.19
2017-07-02T08:54:56.107Z,92.68
2017-07-02T08:55:56.087Z,92.68
2017-07-02T08:56:55.767Z,92.68
2017-07-02T08:57:56.100Z,92.68
2017-07-02T08:58:56.015Z,92.68
2017-07-02T08:59:56.005Z,92.86
2017-07-02T09:00:55.980Z,92.77
2017-07-02T09:01:55.962Z,92.68
2017-07-02T09:02:55.945Z,93.06
2017-07-02T09:03:55.622Z,92.68
2017-07-02T09:04:55.905Z,92.96
2017-07-02T09:05:55.886Z,92.68
2017-07-02T09:06:55.866Z,92.68
2017-07-02T09:07:55.849Z,93.06
2017-07-02T09:08:55.828Z,92.96
2017-07-02T09:09:55.807Z,92.53
2017-07-02T09:10:55.792Z,92.48
2017-07-02T09:11:55.772Z,92.68
2017-07-02T09:12:55.452Z,92.82
2017-07-02T09:13:55.731Z,92.72
2017-07-02T09:14:55.709Z,92.82
2017-07-02T09:15:55.736Z,92.72
2017-07-02T09:16:55.667Z,92.91
2017-07-02T09:17:55.706Z,92.43
2017-07-02T09:18:55.625Z,92.14
2017-07-02T09:19:55.608Z,91.86
2017-07-02T09:20:55.585Z,92.05
2017-07-02T09:21:55.571Z,91.91
2017-07-02T09:22:55.545Z,91.76
2017-07-02T09:23:55.538Z,91.96
2017-07-02T09:24:55.514Z,91.96
2017-07-02T09:25:55.487Z,92.43
2017-07-02T09:26:55.469Z,92.53
2017-07-02T09:27:55.460Z,92.33
2017-07-02T09:28:55.437Z,92.24
2017-07-02T09:29:55.409Z,92.24
2017-07-02T09:30:55.394Z,92.24
2017-07-02T09:31:55.370Z,92.14
2017-07-02T09:32:55.352Z,92.24
2017-07-02T09:33:55.322Z,92.43
2017-07-02T09:34:55.312Z,92.33
2017-07-02T09:35:55.293Z,92.05
2017-07-02T09:36:55.518Z,91.96
2017-07-02T09:37:55.257Z,91.76
2017-07-02T09:38:55.236Z,92.05
2017-07-02T09:39:55.214Z,92.14
2017-07-02T09:40:55.194Z,92.14
2017-07-02T09:41:55.175Z,92.14
2017-07-02T09:42:54.851Z,92.24
2017-07-02T09:43:54.829Z,91.86
2017-07-02T09:44:55.123Z,91.86
2017-07-02T09:45:55.094Z,92.05
2017-07-02T09:46:55.076Z,91.96
2017-07-02T09:47:55.057Z,92
2017-07-02T09:48:55.045Z,92.14
2017-07-02T09:49:55.017Z,91.33
2017-07-02T09:50:55.004Z,90.75
2017-07-02T09:51:54.982Z,91.13
2017-07-02T09:52:55.011Z,91.52
2017-07-02T09:53:54.944Z,91.04
2017-07-02T09:54:54.926Z,91.13
2017-07-02T09:55:54.897Z,91.9
2017-07-02T09:56:54.878Z,91.38
2017-07-02T09:57:54.866Z,91.52
2017-07-02T09:58:54.843Z,91.33
2017-07-02T09:59:54.829Z,91.28
2017-07-02T10:00:54.855Z,91.33
2017-07-02T10:01:54.782Z,91.33
2017-07-02T10:02:54.766Z,91.38
2017-07-02T10:03:54.745Z,90.99
2017-07-02T10:04:54.723Z,91.13
2017-07-02T10:05:54.697Z,91.04
2017-07-02T10:06:54.686Z,91.23
2017-07-02T10:07:54.668Z,91.04
2017-07-02T10:08:54.642Z,91.33
2017-07-02T10:09:54.325Z,91.04
2017-07-02T10:10:54.605Z,91.04
2017-07-02T10:11:54.594Z,90.66
2017-07-02T10:12:54.580Z,91.08
2017-07-02T10:13:54.552Z,90.27
2017-07-02T10:14:54.532Z,90.27
2017-07-02T10:15:54.217Z,90.17
2017-07-02T10:16:54.493Z,90.27
2017-07-02T10:17:54.475Z,90.12
2017-07-02T10:18:54.155Z,90.12
2017-07-02T10:19:54.436Z,90.41
2017-07-02T10:20:54.417Z,90.31
2017-07-02T10:21:54.408Z,90.12
2017-07-02T10:22:54.380Z,89.64
2017-07-02T10:23:54.366Z,90.22
2017-07-02T10:24:54.344Z,89.88
2017-07-02T10:25:54.321Z,89.54
2017-07-02T10:26:54.303Z,89.26
2017-07-02T10:27:54.282Z,88.63
2017-07-02T10:28:54.267Z,88.87
2017-07-02T10:29:54.248Z,89.07
2017-07-02T10:30:54.229Z,89.07
2017-07-02T10:31:54.207Z,89.16
2017-07-02T10:32:54.192Z,88.97
2017-07-02T10:33:54.177Z,88.97
2017-07-02T10:34:54.155Z,88.87
2017-07-02T10:35:54.138Z,88.59
2017-07-02T10:36:54.125Z,88.83
2017-07-02T10:37:53.791Z,88.93
2017-07-02T10:38:53.774Z,89.22
2017-07-02T10:39:54.055Z,89.4
2017-07-02T10:40:54.052Z,89.69
2017-07-02T10:41:54.024Z,89.79
2017-07-02T10:42:54.004Z,89.79
2017-07-02T10:43:53.985Z,89.5
2017-07-02T10:44:53.960Z,90.17
2017-07-02T10:45:53.937Z,89.79
2017-07-02T10:46:53.977Z,89.89
2017-07-02T10:47:53.911Z,90.37
2017-07-02T10:48:53.904Z,90.37
2017-07-02T10:49:53.862Z,90.94
2017-07-02T10:50:53.851Z,90.8
2017-07-02T10:51:53.829Z,91.33
2017-07-02T10:52:53.802Z,91.47
2017-07-02T10:53:53.480Z,92.53
2017-07-02T10:54:53.765Z,93.3
2017-07-02T10:55:53.744Z,93.97
2017-07-02T10:56:53.739Z,94.26
2017-07-02T10:57:53.705Z,94.88
2017-07-02T10:58:53.690Z,95.07
2017-07-02T10:59:53.719Z,95.65
2017-07-02T11:00:53.646Z,95.94
2017-07-02T11:01:53.325Z,96.42
2017-07-02T11:02:53.616Z,96.66
2017-07-02T11:03:53.586Z,96.75
2017-07-02T11:04:53.574Z,97.33
2017-07-02T11:05:53.550Z,97.9
2017-07-02T11:06:53.535Z,97.71
2017-07-02T11:07:53.504Z,97.47
2017-07-02T11:08:53.489Z,97.9
2017-07-02T11:09:53.474Z,98.1
2017-07-02T11:10:53.514Z,98.1
2017-07-02T11:11:53.430Z,98.1
2017-07-02T11:12:53.403Z,97.9
2017-07-02T11:13:53.387Z,98.19
2017-07-02T11:14:53.371Z,98.24
2017-07-02T11:15:53.041Z,98.19
2017-07-02T11:16:53.018Z,98.05
2017-07-02T11:17:53.351Z,98.28
2017-07-02T11:18:53.281Z,98.14
2017-07-02T11:19:53.267Z,98
2017-07-02T11:20:53.254Z,98.19
2017-07-02T11:21:53.223Z,98.1
2017-07-02T11:22:53.244Z,98.14
2017-07-02T11:23:53.184Z,98.53
2017-07-02T11:24:53.158Z,98.43
2017-07-02T11:25:53.137Z,98.53
2017-07-02T11:26:53.123Z,98.53
2017-07-02T11:27:53.098Z,98.62
2017-07-02T11:28:53.077Z,98.82
2017-07-02T11:29:53.061Z,98.14
2017-07-02T11:30:53.041Z,97.61
2017-07-02T11:31:53.014Z,98
2017-07-02T11:32:53.006Z,97.81
2017-07-02T11:33:52.976Z,98.38
2017-07-02T11:34:52.956Z,97.42
2017-07-02T11:35:52.938Z,97.33
2017-07-02T11:36:52.617Z,96.75
2017-07-02T11:37:52.956Z,97.66
2017-07-02T11:38:52.620Z,96.7
2017-07-02T11:39:52.859Z,95.65
2017-07-02T11:40:52.844Z,95.26
2017-07-02T11:41:52.828Z,95.75
2017-07-02T11:42:52.799Z,95.55
2017-07-02T11:43:52.786Z,95.45
2017-07-02T11:44:52.758Z,95.17
2017-07-02T11:45:52.737Z,95.26
2017-07-02T11:46:52.717Z,94.88
2017-07-02T11:47:52.697Z,94.98
2017-07-02T11:48:52.683Z,95.26
2017-07-02T11:49:52.353Z,94.78
2017-07-02T11:50:52.653Z,94.21
2017-07-02T11:51:52.731Z,94.4
2017-07-02T11:52:52.610Z,94.31
2017-07-02T11:53:52.284Z,93.92
2017-07-02T11:54:52.264Z,93.54
2017-07-02T11:55:52.261Z,93.15
2017-07-02T11:56:52.526Z,93.73
2017-07-02T11:57:52.507Z,93.05
2017-07-02T11:58:52.484Z,93.39
2017-07-02T11:59:52.466Z,93.58
2017-07-02T12:00:52.447Z,93.39
2017-07-02T12:01:52.427Z,92.62
2017-07-02T12:02:52.410Z,92.43
2017-07-02T12:03:52.387Z,92.47
2017-07-02T12:04:52.368Z,91.42
2017-07-02T12:05:52.399Z,91.42
2017-07-02T12:06:52.327Z,91.13
2017-07-02T12:07:52.319Z,90.26
2017-07-02T12:08:52.299Z,90.26
2017-07-02T12:09:52.276Z,90.45
2017-07-02T12:10:52.258Z,89.78
2017-07-02T12:11:52.250Z,89.88
2017-07-02T12:12:52.289Z,89.3
2017-07-02T12:13:52.208Z,89.4
2017-07-02T12:14:51.892Z,89.4
2017-07-02T12:15:52.165Z,89.59
2017-07-02T12:16:52.151Z,89.54
2017-07-02T12:17:52.176Z,88.67
2017-07-02T12:18:52.112Z,89.06
2017-07-02T12:19:52.357Z,89.25
2017-07-02T12:20:52.079Z,88.19
2017-07-02T12:21:52.051Z,88.1
2017-07-02T12:22:52.064Z,87.9
2017-07-02T12:23:52.017Z,87.81
2017-07-02T12:24:51.999Z,88.33
2017-07-02T12:25:51.982Z,87.85
2017-07-02T12:26:51.967Z,87.18
2017-07-02T12:27:51.940Z,86.41
2017-07-02T12:28:51.928Z,86.89
2017-07-02T12:29:51.910Z,87.18
2017-07-02T12:30:51.896Z,86.79
2017-07-02T12:31:51.877Z,86.51
2017-07-02T12:32:51.583Z,85.93
2017-07-02T12:33:51.839Z,85.39
2017-07-02T12:34:51.821Z,85.39
2017-07-02T12:35:51.794Z,84.72
2017-07-02T12:36:52.095Z,82.5
2017-07-02T12:37:51.763Z,82.21
2017-07-02T12:38:51.793Z,82.21
2017-07-02T12:39:51.422Z,82.6
2017-07-02T12:40:51.709Z,82.02
2017-07-02T12:41:51.687Z,82.12
2017-07-02T12:42:51.670Z,82.89
2017-07-02T12:43:51.708Z,82.89
2017-07-02T12:44:51.635Z,82.21
2017-07-02T12:45:51.635Z,81.83
2017-07-02T12:46:51.299Z,80.33
2017-07-02T12:47:51.276Z,80.58
2017-07-02T12:48:51.267Z,80.38
2017-07-02T12:49:51.545Z,80.1
2017-07-02T12:50:51.526Z,80.19
2017-07-02T12:51:51.208Z,79.71
2017-07-02T12:52:51.490Z,79.71
2017-07-02T12:53:51.469Z,80
2017-07-02T12:54:51.458Z,80.1
2017-07-02T12:55:51.433Z,79.9
2017-07-02T12:56:51.413Z,79.85